createdAt,value
2022-11-10T00:01:08.080Z,6.88
2022-11-10T00:03:35.939Z,8.13
2022-11-10T00:06:06.915Z,7.63
2022-11-10T00:08:33.700Z,6.20
2022-11-10T00:11:06.522Z,6.05
2022-11-10T00:13:36.093Z,7.75
2022-11-10T00:16:22.621Z,8.32
2022-11-10T00:18:49.396Z,4.22
2022-11-10T00:21:16.901Z,11.55
2022-11-10T00:23:43.846Z,6.18
2022-11-10T00:26:16.175Z,7.03
2022-11-10T00:28:43.022Z,5.10
2022-11-10T00:31:10.128Z,10.07
2022-11-10T00:33:43.637Z,8.30
2022-11-10T00:36:10.481Z,7.38
2022-11-10T00:38:37.093Z,9.57
2022-11-10T00:41:03.963Z,10.07
2022-11-10T00:43:31.031Z,7.22
2022-11-10T00:45:57.848Z,4.88
2022-11-10T00:48:24.864Z,8.88
2022-11-10T00:50:51.566Z,6.30
2022-11-10T00:53:18.490Z,6.13
2022-11-10T00:55:45.220Z,7.28
2022-11-10T00:58:11.878Z,5.68
2022-11-10T01:00:38.483Z,8.20
2022-11-10T01:03:05.092Z,12.13
2022-11-10T01:05:31.716Z,6.75
2022-11-10T01:07:59.683Z,6.25
2022-11-10T01:10:26.857Z,7.80
2022-11-10T01:12:53.608Z,7.35
2022-11-10T01:15:24.526Z,7.30
2022-11-10T01:17:55.259Z,6.97
2022-11-10T01:20:21.928Z,11.38
2022-11-10T01:22:48.538Z,8.30
2022-11-10T01:25:15.168Z,7.30
2022-11-10T01:27:41.781Z,6.85
2022-11-10T01:30:08.611Z,6.63
2022-11-10T01:32:35.172Z,7.22
2022-11-10T01:35:01.811Z,9.43
2022-11-10T01:37:28.501Z,8.13
2022-11-10T01:39:55.145Z,8.05
2022-11-10T01:42:29.612Z,7.43
2022-11-10T01:45:24.135Z,12.05
2022-11-10T01:47:51.899Z,8.10
2022-11-10T01:50:18.860Z,8.50
2022-11-10T01:52:47.532Z,5.95
2022-11-10T01:55:14.113Z,7.80
2022-11-10T01:57:40.724Z,8.00
2022-11-10T02:00:08.256Z,12.15
2022-11-10T02:02:54.952Z,9.57
2022-11-10T02:05:22.498Z,7.65
2022-11-10T02:07:50.255Z,9.15
2022-11-10T02:10:18.447Z,8.10
2022-11-10T02:12:45.041Z,12.05
2022-11-10T02:15:13.365Z,9.40
2022-11-10T02:17:40.788Z,7.35
2022-11-10T02:20:10.345Z,8.70
2022-11-10T02:22:37.095Z,12.70
2022-11-10T02:25:04.684Z,7.18
2022-11-10T02:27:31.371Z,6.60
2022-11-10T02:29:58.304Z,12.18
2022-11-10T02:32:24.872Z,6.70
2022-11-10T02:34:51.495Z,8.23
2022-11-10T02:37:18.051Z,11.13
2022-11-10T02:39:44.604Z,8.95
2022-11-10T02:42:11.145Z,15.07
2022-11-10T02:44:38.309Z,8.77
2022-11-10T02:47:04.908Z,4.70
2022-11-10T02:49:31.494Z,8.70
2022-11-10T02:51:58.151Z,9.52
2022-11-10T02:54:24.795Z,10.88
2022-11-10T02:56:51.345Z,14.73
2022-11-10T02:59:17.929Z,8.23
2022-11-10T03:01:44.567Z,13.85
2022-11-10T03:04:11.217Z,15.48
2022-11-10T03:06:37.819Z,11.25
2022-11-10T03:09:05.354Z,8.23
2022-11-10T03:11:32.493Z,18.02
2022-11-10T03:14:02.034Z,11.27
2022-11-10T03:16:29.418Z,9.15
2022-11-10T03:18:56.025Z,11.50
2022-11-10T03:21:22.579Z,16.70
2022-11-10T03:23:49.163Z,13.15
2022-11-10T03:26:15.711Z,11.73
2022-11-10T03:28:42.329Z,13.57
2022-11-10T03:31:08.871Z,10.13
2022-11-10T03:33:35.687Z,14.60
2022-11-10T03:36:02.332Z,15.85
2022-11-10T03:38:28.894Z,10.93
2022-11-10T03:43:42.016Z,9.55
2022-11-10T03:46:08.935Z,12.82
2022-11-10T03:48:35.694Z,10.52
2022-11-10T03:51:02.268Z,11.18
2022-11-10T03:53:28.892Z,11.43
2022-11-10T03:55:55.454Z,11.98
2022-11-10T03:58:22.035Z,7.97
2022-11-10T04:00:48.596Z,8.02
2022-11-10T04:03:15.218Z,7.95
2022-11-10T04:06:00.107Z,11.20
2022-11-10T04:08:44.956Z,15.70
2022-11-10T04:11:11.519Z,6.53
2022-11-10T04:13:56.542Z,9.65
2022-11-10T04:16:23.127Z,9.88
2022-11-10T04:18:49.693Z,10.98
2022-11-10T04:21:16.435Z,12.27
2022-11-10T04:23:43.004Z,14.82
2022-11-10T04:26:30.322Z,9.23
2022-11-10T04:28:58.828Z,12.50
2022-11-10T04:31:26.988Z,9.38
2022-11-10T04:33:53.959Z,10.10
2022-11-10T04:36:22.481Z,8.48
2022-11-10T04:38:49.321Z,7.45
2022-11-10T04:41:16.280Z,7.28
2022-11-10T04:43:43.195Z,7.88
2022-11-10T04:46:35.589Z,8.70
2022-11-10T04:49:02.962Z,6.82
2022-11-10T04:51:34.600Z,10.48
2022-11-10T04:54:01.337Z,10.02
2022-11-10T04:56:27.956Z,14.15
2022-11-10T04:58:54.721Z,9.85
2022-11-10T05:01:26.648Z,7.88
2022-11-10T05:03:53.892Z,11.75
2022-11-10T05:06:20.657Z,7.30
2022-11-10T05:08:47.725Z,10.48
2022-11-10T05:11:14.434Z,6.00
2022-11-10T05:13:41.233Z,9.07
2022-11-10T05:16:08.311Z,7.90
2022-11-10T05:18:35.139Z,12.25
2022-11-10T05:21:01.768Z,15.75
2022-11-10T05:23:42.021Z,10.57
2022-11-10T05:26:13.461Z,6.75
2022-11-10T05:28:40.966Z,13.02
2022-11-10T05:31:07.680Z,12.57
2022-11-10T05:33:34.993Z,10.55
2022-11-10T05:36:01.934Z,8.57
2022-11-10T05:38:28.538Z,10.55
2022-11-10T05:40:55.320Z,12.75
2022-11-10T05:43:22.443Z,12.68
2022-11-10T05:45:49.235Z,14.98
2022-11-10T05:48:15.920Z,12.77
2022-11-10T05:50:43.551Z,13.88
2022-11-10T05:53:10.291Z,14.35
2022-11-10T05:55:37.024Z,10.02
2022-11-10T05:58:03.571Z,12.18
2022-11-10T06:00:31.112Z,11.07
2022-11-10T06:03:17.600Z,9.57
2022-11-10T06:05:44.654Z,12.75
2022-11-10T06:08:11.540Z,11.07
2022-11-10T06:10:38.553Z,10.00
2022-11-10T06:13:05.421Z,8.50
2022-11-10T06:15:32.358Z,16.58
2022-11-10T06:17:58.935Z,12.35
2022-11-10T06:20:26.048Z,11.10
2022-11-10T06:23:01.536Z,12.23
2022-11-10T06:25:29.720Z,16.05
2022-11-10T06:27:56.773Z,14.93
2022-11-10T06:30:23.766Z,8.05
2022-11-10T06:32:50.334Z,10.48
2022-11-10T06:35:16.998Z,24.85
2022-11-10T06:37:43.599Z,9.38
2022-11-10T06:40:11.208Z,11.15
2022-11-10T06:42:37.834Z,10.70
2022-11-10T06:45:05.017Z,11.98
2022-11-10T06:47:31.882Z,8.13
2022-11-10T06:49:58.445Z,11.07
2022-11-10T06:52:25.007Z,8.55
2022-11-10T06:54:51.635Z,11.40
2022-11-10T06:57:18.186Z,9.85
2022-11-10T06:59:44.795Z,10.88
2022-11-10T07:02:13.975Z,9.75
2022-11-10T07:04:40.592Z,10.35
2022-11-10T07:07:07.275Z,9.48
2022-11-10T07:09:33.859Z,8.10
2022-11-10T07:12:00.419Z,11.55
2022-11-10T07:14:27.023Z,10.98
2022-11-10T07:16:53.567Z,9.32
2022-11-10T07:19:20.180Z,13.18
2022-11-10T07:21:46.771Z,18.98
2022-11-10T07:24:13.351Z,10.75
2022-11-10T07:26:39.936Z,16.25
2022-11-10T07:29:06.512Z,8.02
2022-11-10T07:31:33.111Z,10.73
2022-11-10T07:33:59.709Z,11.40
2022-11-10T07:36:29.059Z,14.07
2022-11-10T07:38:56.022Z,14.98
2022-11-10T07:41:22.659Z,18.17
2022-11-10T07:43:49.285Z,9.95
2022-11-10T07:46:15.877Z,13.82
2022-11-10T07:48:42.514Z,17.52
2022-11-10T07:51:09.102Z,13.30
2022-11-10T07:53:35.706Z,15.77
2022-11-10T07:56:02.279Z,13.85
2022-11-10T07:58:30.352Z,12.30
2022-11-10T08:00:56.941Z,14.73
2022-11-10T08:03:23.829Z,15.43
2022-11-10T08:05:50.679Z,11.10
2022-11-10T08:08:17.683Z,11.13
2022-11-10T08:10:44.336Z,8.75
2022-11-10T08:13:12.513Z,8.35
2022-11-10T08:15:39.501Z,13.00
2022-11-10T08:18:15.891Z,9.07
2022-11-10T08:20:42.493Z,5.20
2022-11-10T08:23:09.099Z,9.15
2022-11-10T08:25:36.570Z,14.88
2022-11-10T08:28:05.346Z,10.40
2022-11-10T08:30:32.327Z,7.70
2022-11-10T08:33:00.190Z,8.93
2022-11-10T08:35:28.607Z,9.88
2022-11-10T08:37:55.348Z,10.25
2022-11-10T08:40:23.079Z,10.25
2022-11-10T08:42:58.145Z,9.70
2022-11-10T08:45:24.704Z,10.90
2022-11-10T08:48:01.232Z,12.43
2022-11-10T08:50:28.517Z,9.90
2022-11-10T08:52:55.592Z,8.30
2022-11-10T08:55:22.279Z,7.50
2022-11-10T08:57:49.073Z,9.05
2022-11-10T09:00:16.590Z,10.57
2022-11-10T09:02:43.222Z,7.80
2022-11-10T09:05:09.785Z,9.00
2022-11-10T09:07:44.176Z,8.00
2022-11-10T09:10:11.034Z,9.40
2022-11-10T09:12:37.785Z,6.88
2022-11-10T09:15:05.120Z,5.13
2022-11-10T09:17:32.203Z,7.65
2022-11-10T09:19:58.817Z,5.20
2022-11-10T09:22:25.403Z,7.28
2022-11-10T09:24:51.976Z,7.40
2022-11-10T09:27:18.704Z,8.73
2022-11-10T09:29:45.260Z,5.95
2022-11-10T09:32:11.818Z,5.40
2022-11-10T09:34:38.447Z,7.07
2022-11-10T09:37:05.026Z,6.80
2022-11-10T09:39:31.596Z,7.88
2022-11-10T09:41:58.141Z,6.28
2022-11-10T09:44:24.610Z,10.55
2022-11-10T09:46:58.663Z,6.10
2022-11-10T09:49:31.034Z,6.85
2022-11-10T09:51:58.406Z,6.20
2022-11-10T09:54:45.736Z,4.40
2022-11-10T09:57:17.016Z,6.03
2022-11-10T09:59:43.708Z,7.18
2022-11-10T10:02:13.501Z,5.15
2022-11-10T10:04:52.400Z,7.18
2022-11-10T10:07:33.041Z,6.82
2022-11-10T10:10:20.551Z,5.20
2022-11-10T10:13:06.297Z,6.20
2022-11-10T10:15:36.164Z,3.55
2022-11-10T10:18:07.804Z,8.50
2022-11-10T10:20:46.520Z,6.15
2022-11-10T10:23:19.050Z,4.30
2022-11-10T10:25:45.864Z,4.53
2022-11-10T10:28:18.819Z,7.63
2022-11-10T10:30:45.769Z,5.25
2022-11-10T10:33:22.387Z,2.97
2022-11-10T10:35:50.543Z,4.88
2022-11-10T10:38:22.504Z,3.90
2022-11-10T10:40:51.366Z,3.60
2022-11-10T10:43:18.107Z,3.10
2022-11-10T10:45:44.775Z,5.40
2022-11-10T10:48:28.506Z,6.68
2022-11-10T10:50:55.060Z,4.88
2022-11-10T10:53:25.605Z,5.43
2022-11-10T10:56:05.016Z,7.70
2022-11-10T10:58:49.325Z,3.67
2022-11-10T11:01:16.097Z,3.05
2022-11-10T11:03:44.918Z,3.50
2022-11-10T11:06:18.805Z,1.85
2022-11-10T11:08:59.904Z,3.20
2022-11-10T11:11:33.110Z,2.15
2022-11-10T11:14:18.504Z,2.70
2022-11-10T11:16:49.197Z,2.60
2022-11-10T11:19:16.265Z,1.25
2022-11-10T11:22:23.079Z,5.30
2022-11-10T11:25:01.866Z,2.53
2022-11-10T11:27:31.346Z,3.15
2022-11-10T11:30:16.373Z,2.88
2022-11-10T11:32:50.643Z,5.05
2022-11-10T11:35:41.855Z,3.35
2022-11-10T11:38:35.579Z,1.27
2022-11-10T11:41:27.655Z,3.53
2022-11-10T11:44:03.530Z,2.78
2022-11-10T11:49:37.492Z,3.92
2022-11-10T11:52:39.155Z,3.13
2022-11-10T11:55:25.574Z,7.22
2022-11-10T11:58:10.591Z,2.83
2022-11-10T12:01:18.624Z,3.28
2022-11-10T12:04:21.981Z,3.15
2022-11-10T12:07:00.730Z,3.05
2022-11-10T12:10:03.955Z,3.70
2022-11-10T12:12:58.689Z,3.70
2022-11-10T12:15:27.844Z,3.67
2022-11-10T12:18:12.431Z,5.32
2022-11-10T12:20:41.912Z,4.32
2022-11-10T12:23:29.566Z,4.22
2022-11-10T12:26:40.933Z,5.07
2022-11-10T12:29:26.504Z,1.67
2022-11-10T12:31:55.376Z,2.53
2022-11-10T12:34:45.614Z,4.22
2022-11-10T12:37:23.455Z,2.80
2022-11-10T12:40:16.300Z,2.35
2022-11-10T12:42:44.619Z,3.08
2022-11-10T12:45:24.393Z,2.80
2022-11-10T12:47:50.981Z,3.28
2022-11-10T12:50:49.075Z,2.38
2022-11-10T12:53:20.820Z,2.78
2022-11-10T12:56:00.454Z,2.00
2022-11-10T12:58:27.551Z,2.03
2022-11-10T13:00:56.703Z,2.05
2022-11-10T13:03:34.412Z,2.17
2022-11-10T13:06:05.072Z,4.00
2022-11-10T13:08:42.409Z,3.78
2022-11-10T13:11:11.906Z,2.65
2022-11-10T13:13:47.924Z,7.35
2022-11-10T13:16:40.591Z,3.70
2022-11-10T13:19:11.756Z,2.85
2022-11-10T13:21:50.483Z,1.77
2022-11-10T13:24:36.572Z,3.80
2022-11-10T13:27:05.198Z,2.85
2022-11-10T13:29:43.996Z,1.98
2022-11-10T13:32:28.631Z,2.53
2022-11-10T13:34:55.714Z,2.53
2022-11-10T13:37:45.126Z,1.73
2022-11-10T13:40:20.569Z,2.90
2022-11-10T13:42:59.254Z,2.05
2022-11-10T13:45:39.954Z,3.55
2022-11-10T13:48:25.904Z,3.67
2022-11-10T13:50:58.528Z,3.63
2022-11-10T13:54:06.799Z,2.30
2022-11-10T13:56:40.152Z,2.40
2022-11-10T13:59:21.812Z,6.18
2022-11-10T14:01:48.581Z,4.07
2022-11-10T14:04:35.381Z,3.97
2022-11-10T14:07:02.157Z,4.78
2022-11-10T14:09:33.402Z,4.63
2022-11-10T14:12:04.569Z,2.33
2022-11-10T14:14:46.430Z,3.72
2022-11-10T14:17:19.334Z,3.60
2022-11-10T14:22:34.605Z,3.78
2022-11-10T14:25:25.006Z,3.58
2022-11-10T14:27:57.734Z,4.68
2022-11-10T14:30:25.839Z,4.05
2022-11-10T14:33:00.836Z,5.10
2022-11-10T14:35:32.830Z,3.38
2022-11-10T14:38:04.343Z,3.20
2022-11-10T14:40:31.013Z,2.42
2022-11-10T14:42:57.726Z,2.85
2022-11-10T14:45:25.936Z,1.70
2022-11-10T14:47:54.070Z,2.47
2022-11-10T14:50:25.573Z,2.40
2022-11-10T14:52:55.672Z,2.83
2022-11-10T14:55:28.638Z,3.70
2022-11-10T15:00:35.924Z,1.45
2022-11-10T15:03:02.565Z,3.60
2022-11-10T15:05:30.199Z,2.25
2022-11-10T15:07:58.249Z,2.78
2022-11-10T15:10:42.057Z,3.42
2022-11-10T15:13:14.815Z,5.30
2022-11-10T15:15:41.657Z,6.63
2022-11-10T15:18:27.158Z,7.10
2022-11-10T15:21:04.563Z,4.95
2022-11-10T15:23:39.456Z,3.10
2022-11-10T15:26:07.106Z,3.25
2022-11-10T15:28:36.727Z,4.35
2022-11-10T15:31:14.549Z,3.78
2022-11-10T15:33:47.979Z,5.68
2022-11-10T15:36:27.952Z,5.30
2022-11-10T15:39:12.707Z,3.42
2022-11-10T15:41:43.685Z,5.25
2022-11-10T15:44:28.203Z,3.92
2022-11-10T15:46:55.187Z,3.20
2022-11-10T15:49:25.860Z,2.58
2022-11-10T15:51:53.925Z,3.25
2022-11-10T15:54:22.359Z,4.80
2022-11-10T15:56:48.964Z,4.57
2022-11-10T15:59:15.563Z,9.25
2022-11-10T16:01:42.197Z,4.30
2022-11-10T16:04:12.159Z,3.72
2022-11-10T16:08:24.316Z,6.55
2022-11-10T16:10:13.853Z,5.45
2022-11-10T16:12:40.450Z,4.93
2022-11-10T16:15:12.721Z,5.30
2022-11-10T16:17:39.686Z,3.72
2022-11-10T16:20:14.431Z,6.30
2022-11-10T16:22:41.022Z,8.43
2022-11-10T16:25:07.723Z,6.63
2022-11-10T16:27:34.319Z,8.77
2022-11-10T16:30:00.976Z,7.07
2022-11-10T16:32:27.580Z,4.68
2022-11-10T16:34:55.120Z,8.65
2022-11-10T16:37:21.704Z,7.47
2022-11-10T16:39:48.274Z,8.57
2022-11-10T16:42:14.858Z,6.95
2022-11-10T16:44:42.655Z,4.80
2022-11-10T16:47:09.450Z,6.53
2022-11-10T16:49:36.000Z,4.70
2022-11-10T16:52:05.011Z,8.15
2022-11-10T16:54:31.891Z,4.32
2022-11-10T16:56:58.475Z,4.70
2022-11-10T16:59:25.236Z,6.65
2022-11-10T17:01:51.834Z,5.82
2022-11-10T17:04:18.430Z,5.60
2022-11-10T17:06:45.214Z,6.63
2022-11-10T17:09:17.992Z,6.68
2022-11-10T17:11:44.576Z,7.95
2022-11-10T17:14:12.657Z,5.80
2022-11-10T17:16:43.122Z,6.97
2022-11-10T17:19:15.438Z,4.50
2022-11-10T17:21:42.032Z,7.30
2022-11-10T17:24:11.832Z,4.85
2022-11-10T17:26:38.429Z,6.70
2022-11-10T17:29:05.007Z,3.55
2022-11-10T17:31:31.586Z,6.03
2022-11-10T17:33:58.181Z,4.90
2022-11-10T17:36:24.813Z,6.32
2022-11-10T17:38:51.522Z,7.78
2022-11-10T17:41:19.205Z,6.07
2022-11-10T17:43:46.325Z,6.05
2022-11-10T17:46:14.003Z,7.25
2022-11-10T17:48:40.674Z,6.53
2022-11-10T17:51:18.536Z,7.57
2022-11-10T17:53:45.211Z,8.00
2022-11-10T17:56:11.796Z,7.65
2022-11-10T17:58:38.353Z,10.93
2022-11-10T18:01:12.871Z,6.28
2022-11-10T18:03:39.507Z,8.48
2022-11-10T18:06:06.712Z,10.63
2022-11-10T18:08:33.309Z,6.93
2022-11-10T18:11:00.865Z,9.90
2022-11-10T18:13:27.409Z,9.45
2022-11-10T18:15:54.476Z,8.18
2022-11-10T18:18:21.032Z,8.85
2022-11-10T18:20:47.652Z,9.02
2022-11-10T18:23:14.284Z,12.05
2022-11-10T18:25:41.821Z,8.88
2022-11-10T18:28:09.739Z,6.07
2022-11-10T18:30:37.536Z,6.45
2022-11-10T18:33:04.912Z,5.93
2022-11-10T18:35:31.798Z,7.57
2022-11-10T18:37:58.433Z,12.50
2022-11-10T18:40:25.383Z,8.07
2022-11-10T18:42:56.763Z,10.82
2022-11-10T18:45:23.906Z,10.57
2022-11-10T18:47:51.044Z,7.05
2022-11-10T18:50:17.885Z,7.82
2022-11-10T18:52:45.191Z,8.63
2022-11-10T18:55:11.989Z,10.38
2022-11-10T18:57:38.559Z,8.35
2022-11-10T19:00:07.039Z,9.80
2022-11-10T19:02:34.508Z,8.23
2022-11-10T19:05:02.539Z,12.02
2022-11-10T19:07:30.033Z,11.73
2022-11-10T19:09:56.647Z,9.77
2022-11-10T19:12:26.515Z,11.00
2022-11-10T19:14:53.382Z,12.07
2022-11-10T19:17:20.008Z,11.82
2022-11-10T19:19:46.569Z,7.95
2022-11-10T19:22:13.181Z,12.57
2022-11-10T19:25:00.851Z,11.65
2022-11-10T19:27:26.343Z,11.60
2022-11-10T19:29:55.367Z,13.20
2022-11-10T19:32:24.815Z,9.13
2022-11-10T19:34:51.774Z,16.45
2022-11-10T19:37:18.364Z,13.35
2022-11-10T19:39:44.899Z,13.30
2022-11-10T19:42:14.406Z,11.95
2022-11-10T19:44:40.997Z,10.52
2022-11-10T19:47:07.575Z,16.40
2022-11-10T19:49:38.248Z,10.70
2022-11-10T19:52:04.933Z,11.50
2022-11-10T19:54:31.509Z,10.32
2022-11-10T19:56:58.110Z,11.50
2022-11-10T19:59:24.666Z,15.00
2022-11-10T20:01:51.372Z,10.02
2022-11-10T20:04:18.005Z,10.85
2022-11-10T20:06:44.662Z,19.15
2022-11-10T20:09:11.286Z,10.60
2022-11-10T20:11:37.914Z,11.25
2022-11-10T20:14:05.728Z,14.00
2022-11-10T20:16:32.309Z,9.75
2022-11-10T20:18:58.896Z,13.73
2022-11-10T20:21:25.533Z,10.20
2022-11-10T20:23:55.917Z,8.82
2022-11-10T20:26:23.264Z,9.02
2022-11-10T20:28:50.072Z,8.43
2022-11-10T20:31:23.641Z,11.10
2022-11-10T20:33:51.397Z,14.13
2022-11-10T20:36:21.047Z,6.25
2022-11-10T20:38:51.065Z,8.32
2022-11-10T20:41:20.066Z,10.57
2022-11-10T20:43:47.612Z,11.07
2022-11-10T20:46:33.208Z,12.50
2022-11-10T20:49:03.306Z,13.20
2022-11-10T20:51:30.017Z,13.43
2022-11-10T20:53:57.163Z,10.50
2022-11-10T20:56:28.390Z,19.05
2022-11-10T20:58:56.594Z,13.85
2022-11-10T21:01:23.644Z,11.05
2022-11-10T21:03:50.426Z,10.65
2022-11-10T21:06:17.016Z,9.85
2022-11-10T21:08:43.735Z,17.50
2022-11-10T21:11:10.427Z,10.68
2022-11-10T21:13:37.537Z,9.73
2022-11-10T21:16:05.935Z,13.55
2022-11-10T21:18:34.906Z,8.98
2022-11-10T21:21:01.795Z,9.70
2022-11-10T21:23:28.526Z,12.68
2022-11-10T21:25:56.336Z,10.55
2022-11-10T21:28:23.068Z,10.35
2022-11-10T21:30:49.759Z,12.88
2022-11-10T21:33:16.386Z,10.57
2022-11-10T21:35:43.133Z,7.93
2022-11-10T21:38:13.252Z,13.10
2022-11-10T21:40:40.067Z,7.70
2022-11-10T21:43:06.711Z,11.68
2022-11-10T21:45:33.288Z,12.10
2022-11-10T21:48:00.972Z,10.38
2022-11-10T21:50:27.532Z,10.40
2022-11-10T21:52:54.116Z,9.73
2022-11-10T21:55:20.658Z,15.27
2022-11-10T21:57:47.256Z,8.73
2022-11-10T22:00:14.273Z,7.93
2022-11-10T22:02:40.866Z,6.80
2022-11-10T22:05:07.767Z,10.40
2022-11-10T22:07:34.326Z,8.95
2022-11-10T22:10:19.462Z,15.38
2022-11-10T22:13:05.786Z,13.73
2022-11-10T22:15:50.830Z,13.63
2022-11-10T22:18:36.756Z,14.02
2022-11-10T22:21:04.451Z,12.60
2022-11-10T22:23:49.682Z,14.65
2022-11-10T22:26:16.298Z,10.15
2022-11-10T22:28:42.966Z,13.55
2022-11-10T22:31:11.759Z,12.38
2022-11-10T22:33:40.806Z,13.18
2022-11-10T22:36:10.550Z,10.57
2022-11-10T22:38:38.239Z,21.98
2022-11-10T22:41:23.529Z,13.25
2022-11-10T22:44:05.189Z,12.18
2022-11-10T22:46:34.195Z,12.60
2022-11-10T22:49:01.892Z,10.85
2022-11-10T22:51:29.752Z,10.95
2022-11-10T22:53:56.271Z,16.55
2022-11-10T22:56:22.887Z,12.13
2022-11-10T22:58:49.467Z,12.93
2022-11-10T23:01:16.174Z,12.43
2022-11-10T23:03:42.774Z,10.18
2022-11-10T23:06:09.586Z,11.45
2022-11-10T23:08:36.325Z,11.95
2022-11-10T23:11:05.302Z,13.85
2022-11-10T23:13:35.259Z,13.65
2022-11-10T23:16:03.676Z,14.60
2022-11-10T23:18:30.264Z,11.52
2022-11-10T23:21:01.576Z,14.82
2022-11-10T23:23:28.720Z,11.90
2022-11-10T23:25:58.607Z,12.70
2022-11-10T23:28:26.910Z,10.70
2022-11-10T23:30:53.619Z,10.88
2022-11-10T23:33:20.462Z,14.45
2022-11-10T23:35:47.234Z,9.07
2022-11-10T23:38:13.829Z,18.92
2022-11-10T23:40:40.403Z,10.25
2022-11-10T23:43:06.922Z,10.30
2022-11-10T23:46:04.767Z,14.07
2022-11-10T23:48:20.857Z,10.35
2022-11-10T23:50:47.813Z,12.95
2022-11-10T23:53:14.751Z,11.35
2022-11-10T23:55:41.579Z,12.75
2022-11-10T23:58:08.385Z,14.65
